Time;durP1;ratioP1;P1;durP2;ratioP2;P2;SDS_P1;SDS_P2;PMS_P1;PMS_P2;Temp;Humidity;BMP_temperature;BMP_pressure;BME280_temperature;BME280_humidity;BME280_pressure;Samples;Min_cycle;Max_cycle;Signal;HPM_P1;HPM_P2
2023/01/18 00:00:04;;;;;;;21.25;8.93;;;0.90;99.90;;;;;;5085197;28;20080;-73
2023/01/18 00:02:29;;;;;;;20.42;10.43;;;1.00;99.90;;;;;;5099157;28;20028;-74
2023/01/18 00:04:55;;;;;;;19.88;9.57;;;0.90;99.90;;;;;;5085657;28;20022;-75
2023/01/18 00:07:21;;;;;;;17.48;9.73;;;0.90;99.90;;;;;;5104163;28;20047;-74
2023/01/18 00:09:46;;;;;;;28.27;10.82;;;0.90;99.90;;;;;;5084986;28;20024;-75
2023/01/18 00:12:12;;;;;;;29.20;10.07;;;0.90;99.90;;;;;;5103322;28;20028;-74
2023/01/18 00:14:38;;;;;;;22.88;10.38;;;1.00;99.90;;;;;;5086616;28;20124;-74
2023/01/18 00:17:03;;;;;;;26.20;11.27;;;0.90;99.90;;;;;;5086974;28;20046;-73
2023/01/18 00:19:29;;;;;;;22.85;10.38;;;1.00;99.90;;;;;;5085815;28;20036;-77
2023/01/18 00:21:56;;;;;;;23.25;9.95;;;1.00;99.90;;;;;;5110868;27;20016;-81
2023/01/18 00:24:23;;;;;;;22.65;11.15;;;1.00;99.90;;;;;;5090471;28;20055;-73
2023/01/18 00:26:49;;;;;;;23.00;11.20;;;1.00;99.90;;;;;;5072702;28;20556;-79
2023/01/18 00:29:15;;;;;;;20.98;10.35;;;1.00;99.90;;;;;;5072080;28;20028;-74
2023/01/18 00:32:13;;;;;;;22.65;10.27;;;1.00;99.90;;;;;;5089051;28;20028;-73
2023/01/18 00:34:38;;;;;;;24.63;11.00;;;1.00;99.90;;;;;;5091271;28;20083;-75
2023/01/18 00:37:04;;;;;;;24.63;11.23;;;1.00;99.90;;;;;;5108045;28;20103;-73
2023/01/18 00:39:30;;;;;;;20.58;9.90;;;1.00;99.90;;;;;;5073626;28;20069;-74
2023/01/18 00:44:40;;;;;;;22.23;11.30;;;0.90;99.90;;;;;;5089637;28;20023;-76
2023/01/18 00:47:05;;;;;;;21.10;10.38;;;0.90;99.90;;;;;;5091111;28;20560;-73
2023/01/18 00:49:31;;;;;;;18.83;10.07;;;0.90;99.90;;;;;;5091268;28;20580;-74
2023/01/18 00:51:57;;;;;;;23.70;12.07;;;0.90;99.90;;;;;;5092043;28;20055;-74
2023/01/18 00:54:26;;;;;;;24.27;11.10;;;0.80;99.90;;;;;;5106292;28;20027;-79
2023/01/18 00:56:52;;;;;;;20.08;10.20;;;0.80;99.90;;;;;;5110173;28;20057;-74
2023/01/18 00:59:17;;;;;;;18.83;9.88;;;0.90;99.90;;;;;;5108190;28;20463;-74
2023/01/18 01:01:44;;;;;;;23.27;11.80;;;0.80;99.90;;;;;;5087768;28;20556;-73
2023/01/18 01:06:53;;;;;;;21.40;9.88;;;0.80;99.90;;;;;;5106922;28;20034;-73
2023/01/18 01:09:23;;;;;;;21.05;10.95;;;0.90;99.90;;;;;;5089365;28;20024;-73
2023/01/18 01:28:22;;;;;;;20.70;10.40;;;0.90;99.90;;;;;;5096134;28;20381;-75
2023/01/18 01:30:48;;;;;;;22.48;11.27;;;0.90;99.90;;;;;;5071037;28;20107;-76
2023/01/18 01:33:16;;;;;;;21.98;10.25;;;0.90;99.90;;;;;;5084523;28;20065;-74
2023/01/18 01:35:41;;;;;;;22.45;10.85;;;0.80;99.90;;;;;;5108723;28;20495;-74
2023/01/18 01:38:07;;;;;;;27.25;12.77;;;0.80;99.90;;;;;;5088950;28;20046;-75
2023/01/18 01:40:33;;;;;;;20.10;11.05;;;0.80;99.90;;;;;;5072535;28;20035;-74
2023/01/18 01:42:59;;;;;;;23.17;11.75;;;0.80;99.90;;;;;;5103035;28;20041;-74
2023/01/18 01:45:27;;;;;;;20.70;10.43;;;0.80;99.90;;;;;;5092770;28;20661;-73
2023/01/18 01:47:54;;;;;;;21.05;10.88;;;0.80;99.90;;;;;;5088819;28;20123;-74
2023/01/18 01:50:34;;;;;;;20.33;11.13;;;0.80;99.90;;;;;;5107226;28;20027;-74
2023/01/18 01:53:01;;;;;;;25.48;12.45;;;0.80;99.90;;;;;;5085662;28;20081;-74
2023/01/18 01:55:31;;;;;;;24.60;10.77;;;0.80;99.90;;;;;;5107144;28;20031;-73
2023/01/18 01:58:05;;;;;;;25.15;12.27;;;0.80;99.90;;;;;;5081930;28;20547;-73
2023/01/18 02:00:32;;;;;;;23.73;11.40;;;0.70;99.90;;;;;;5107806;28;20377;-72
2023/01/18 02:03:02;;;;;;;23.95;11.57;;;0.70;99.90;;;;;;5086214;28;20063;-73
2023/01/18 02:05:30;;;;;;;24.20;12.05;;;0.70;99.90;;;;;;5106519;28;20028;-74
2023/01/18 02:07:59;;;;;;;20.85;10.90;;;0.70;99.90;;;;;;5086847;28;20451;-74
2023/01/18 02:10:25;;;;;;;24.23;11.30;;;0.70;99.90;;;;;;5106922;28;20106;-75
2023/01/18 02:12:53;;;;;;;22.05;11.60;;;0.70;99.90;;;;;;5086641;28;20771;-74
2023/01/18 02:15:22;;;;;;;21.63;11.57;;;0.70;99.90;;;;;;5086781;28;20487;-75
2023/01/18 02:18:08;;;;;;;23.60;10.90;;;0.70;99.90;;;;;;5106663;28;20033;-75
2023/01/18 02:21:09;;;;;;;23.25;12.32;;;0.60;99.90;;;;;;5086682;28;20034;-75
2023/01/18 02:23:54;;;;;;;28.23;11.45;;;0.60;99.90;;;;;;5101536;28;20106;-77
2023/01/18 02:26:48;;;;;;;24.20;12.00;;;0.60;99.90;;;;;;5104674;28;20804;-77
2023/01/18 02:29:20;;;;;;;26.63;11.90;;;0.60;99.90;;;;;;5105605;28;20619;-76
2023/01/18 02:32:14;;;;;;;23.58;12.10;;;0.60;99.90;;;;;;5087607;28;20031;-72
2023/01/18 02:34:46;;;;;;;24.70;11.98;;;0.70;99.90;;;;;;5088581;28;20107;-74
2023/01/18 02:37:41;;;;;;;24.77;12.73;;;0.70;99.90;;;;;;5088213;28;20051;-75
2023/01/18 02:40:27;;;;;;;22.73;11.20;;;0.70;99.90;;;;;;5104375;28;20519;-74
2023/01/18 02:48:44;;;;;;;19.92;10.77;;;0.80;99.90;;;;;;5085974;28;20039;-77
2023/01/18 02:51:10;;;;;;;23.40;11.98;;;0.80;99.90;;;;;;5084768;28;20074;-74
2023/01/18 02:53:40;;;;;;;24.52;12.13;;;0.80;99.90;;;;;;5103271;28;20027;-73
2023/01/18 02:56:22;;;;;;;22.52;11.00;;;0.80;99.90;;;;;;5084975;28;20549;-74
2023/01/18 02:58:56;;;;;;;21.52;11.43;;;0.80;99.90;;;;;;5089411;28;20544;-74
2023/01/18 03:01:26;;;;;;;23.85;11.93;;;0.80;99.90;;;;;;5106651;28;20157;-73
2023/01/18 03:04:02;;;;;;;24.98;13.27;;;0.80;99.90;;;;;;5087977;28;20088;-74
2023/01/18 03:06:28;;;;;;;22.80;11.55;;;0.80;99.90;;;;;;5090308;28;20023;-74
2023/01/18 03:08:56;;;;;;;25.10;12.23;;;0.70;99.90;;;;;;5103316;28;20028;-79
2023/01/18 03:11:49;;;;;;;22.50;11.95;;;0.70;99.90;;;;;;5105331;28;20034;-75
2023/01/18 03:14:26;;;;;;;23.63;12.40;;;0.70;99.90;;;;;;5085402;28;20042;-75
2023/01/18 03:17:09;;;;;;;21.88;11.20;;;0.70;99.90;;;;;;5103535;28;20027;-74
2023/01/18 03:20:07;;;;;;;22.45;11.73;;;0.70;99.90;;;;;;5105841;28;20534;-74
2023/01/18 03:25:25;;;;;;;21.23;11.35;;;0.70;99.90;;;;;;5104350;28;20036;-75
2023/01/18 03:33:44;;;;;;;23.90;12.25;;;0.60;99.90;;;;;;5107862;28;20039;-74
2023/01/18 03:36:21;;;;;;;24.88;12.80;;;0.60;99.90;;;;;;5104834;28;20043;-74
2023/01/18 03:38:52;;;;;;;23.10;12.60;;;0.70;99.90;;;;;;5089159;28;20109;-74
2023/01/18 03:41:20;;;;;;;24.20;12.30;;;0.60;99.90;;;;;;5105747;28;20541;-74
2023/01/18 03:43:48;;;;;;;22.25;12.05;;;0.60;99.90;;;;;;5085711;28;20032;-76
2023/01/18 03:46:22;;;;;;;26.40;12.50;;;0.60;99.90;;;;;;5104766;28;20085;-74
2023/01/18 03:48:48;;;;;;;25.80;12.52;;;0.60;99.90;;;;;;5104060;28;20028;-77
2023/01/18 03:51:38;;;;;;;29.35;13.07;;;0.60;99.90;;;;;;5107345;28;20661;-74
2023/01/18 03:54:22;;;;;;;23.50;12.50;;;0.60;99.90;;;;;;5112621;28;20058;-73
2023/01/18 03:56:59;;;;;;;22.08;11.55;;;0.60;99.90;;;;;;5093840;28;20032;-78
2023/01/18 03:59:28;;;;;;;27.52;12.75;;;0.60;99.90;;;;;;5091969;28;20031;-75
2023/01/18 04:01:55;;;;;;;26.70;13.35;;;0.60;99.90;;;;;;5088745;28;20114;-74
2023/01/18 04:04:23;;;;;;;25.60;12.40;;;0.60;99.90;;;;;;5072419;28;20031;-74
2023/01/18 04:06:49;;;;;;;23.75;12.00;;;0.60;99.90;;;;;;5096054;28;20023;-74
2023/01/18 04:09:15;;;;;;;26.55;12.20;;;0.50;99.90;;;;;;5093336;28;20407;-75
2023/01/18 04:12:02;;;;;;;26.65;12.27;;;0.50;99.90;;;;;;5090263;28;20028;-74
2023/01/18 04:14:28;;;;;;;27.00;12.15;;;0.50;99.90;;;;;;5109516;28;20040;-74
2023/01/18 04:16:54;;;;;;;29.73;12.82;;;0.50;99.90;;;;;;5092739;28;20038;-79
2023/01/18 04:19:20;;;;;;;23.67;12.77;;;0.50;99.90;;;;;;5086247;28;20042;-74
2023/01/18 04:21:45;;;;;;;23.17;11.63;;;0.50;99.90;;;;;;5107300;28;20120;-76
2023/01/18 04:24:11;;;;;;;21.95;11.38;;;0.60;99.90;;;;;;5091491;28;20100;-75
2023/01/18 04:26:37;;;;;;;23.23;11.93;;;0.50;99.90;;;;;;5109452;28;20055;-77
2023/01/18 04:29:03;;;;;;;27.85;13.95;;;0.50;99.90;;;;;;5109082;28;20027;-75
2023/01/18 04:31:29;;;;;;;24.77;12.10;;;0.40;99.90;;;;;;5091120;28;20030;-74
2023/01/18 04:33:55;;;;;;;26.17;12.70;;;0.40;99.90;;;;;;5107729;28;20031;-74
2023/01/18 04:36:21;;;;;;;25.92;12.50;;;0.40;99.90;;;;;;5107443;28;20560;-74
2023/01/18 04:38:51;;;;;;;24.02;12.75;;;0.40;99.90;;;;;;5107915;28;20118;-75
2023/01/18 04:41:17;;;;;;;23.83;11.87;;;0.40;99.90;;;;;;5090719;28;20112;-73
2023/01/18 04:43:42;;;;;;;24.15;12.10;;;0.40;99.90;;;;;;5108885;28;20293;-74
2023/01/18 04:46:08;;;;;;;25.40;12.90;;;0.40;99.90;;;;;;5093321;28;20027;-73
2023/01/18 04:48:34;;;;;;;23.55;12.73;;;0.40;99.90;;;;;;5110019;28;20032;-76
2023/01/18 04:50:59;;;;;;;26.80;13.52;;;0.40;99.90;;;;;;5110312;28;20031;-75
2023/01/18 04:53:26;;;;;;;28.65;13.35;;;0.40;99.90;;;;;;5084650;28;20522;-74
2023/01/18 04:56:02;;;;;;;25.15;13.38;;;0.50;99.90;;;;;;5109089;28;20036;-73
2023/01/18 04:58:27;;;;;;;28.10;13.70;;;0.50;99.90;;;;;;5091589;28;20455;-75
2023/01/18 05:00:53;;;;;;;28.23;12.70;;;0.40;99.90;;;;;;5105291;27;20066;-74
2023/01/18 05:03:18;;;;;;;28.48;14.02;;;0.40;99.90;;;;;;5088586;28;20024;-73
2023/01/18 05:05:44;;;;;;;23.98;13.00;;;0.40;99.90;;;;;;5106711;28;20506;-73
2023/01/18 05:08:10;;;;;;;25.05;12.90;;;0.30;99.90;;;;;;5099516;28;20111;-74
2023/01/18 05:10:35;;;;;;;29.63;13.88;;;0.40;99.90;;;;;;5070058;28;20029;-75
2023/01/18 05:13:02;;;;;;;28.55;13.85;;;0.40;99.90;;;;;;5089134;28;20064;-74
2023/01/18 05:15:28;;;;;;;27.80;13.98;;;0.30;99.90;;;;;;5089111;28;20403;-76
2023/01/18 05:17:55;;;;;;;24.30;13.13;;;0.20;99.90;;;;;;5106272;28;20028;-78
2023/01/18 05:20:20;;;;;;;31.00;13.95;;;0.20;99.90;;;;;;5109461;28;20027;-74
2023/01/18 05:22:46;;;;;;;28.00;13.88;;;0.30;99.90;;;;;;5098430;28;20031;-75
2023/01/18 05:25:12;;;;;;;26.35;13.32;;;0.30;99.90;;;;;;5072618;28;20095;-74
2023/01/18 05:27:37;;;;;;;26.98;14.02;;;0.30;99.90;;;;;;5087075;28;20056;-75
2023/01/18 05:30:04;;;;;;;27.75;13.88;;;0.30;99.90;;;;;;5070847;27;20028;-84
2023/01/18 05:32:30;;;;;;;27.55;13.95;;;0.30;99.90;;;;;;5076827;28;20051;-77
2023/01/18 05:34:56;;;;;;;26.40;13.90;;;0.30;99.90;;;;;;5051385;28;21694;-76
2023/01/18 05:37:22;;;;;;;29.17;14.18;;;0.30;99.90;;;;;;5083844;27;20170;-74
2023/01/18 05:39:47;;;;;;;30.05;15.13;;;0.30;99.90;;;;;;5096571;27;20410;-77
2023/01/18 05:42:14;;;;;;;29.60;14.52;;;0.30;99.90;;;;;;5103528;27;20372;-76
2023/01/18 05:44:40;;;;;;;30.48;14.00;;;0.30;99.90;;;;;;5071434;28;20047;-77
2023/01/18 05:47:05;;;;;;;27.33;13.30;;;0.30;99.90;;;;;;5064053;28;20078;-76
2023/01/18 05:49:31;;;;;;;27.33;13.60;;;0.20;99.90;;;;;;5090784;28;20100;-74
2023/01/18 05:52:02;;;;;;;27.30;14.52;;;0.20;99.90;;;;;;5076076;28;20097;-79
2023/01/18 05:54:28;;;;;;;29.58;14.85;;;0.30;99.90;;;;;;5102549;28;20067;-77
2023/01/18 05:56:53;;;;;;;30.02;14.95;;;0.30;99.90;;;;;;5090363;28;20502;-76
2023/01/18 05:59:19;;;;;;;30.60;15.65;;;0.30;99.90;;;;;;5084887;28;20023;-76
2023/01/18 06:01:45;;;;;;;28.52;14.02;;;0.20;99.90;;;;;;5069819;28;20063;-77
2023/01/18 06:04:10;;;;;;;33.33;14.63;;;0.20;99.90;;;;;;5092282;28;20043;-75
2023/01/18 06:06:36;;;;;;;33.20;15.20;;;0.20;99.90;;;;;;5108228;28;20066;-75
2023/01/18 06:09:02;;;;;;;28.02;14.40;;;0.20;99.90;;;;;;5091870;28;20028;-75
2023/01/18 06:11:28;;;;;;;26.48;13.95;;;0.10;99.90;;;;;;5106132;27;20035;-76
2023/01/18 06:13:54;;;;;;;30.55;15.40;;;0.10;99.90;;;;;;5067638;28;20320;-73
2023/01/18 06:16:19;;;;;;;26.77;14.77;;;0.10;99.90;;;;;;5100833;27;20036;-74
2023/01/18 06:18:45;;;;;;;31.55;15.63;;;0.10;99.90;;;;;;5087901;28;20046;-76
2023/01/18 06:21:11;;;;;;;31.88;13.77;;;0.20;99.90;;;;;;5103284;27;20032;-74
2023/01/18 06:23:37;;;;;;;28.15;14.50;;;0.20;99.90;;;;;;5105894;28;20023;-71
2023/01/18 06:26:03;;;;;;;26.50;14.30;;;0.10;99.90;;;;;;5091969;28;20031;-74
2023/01/18 06:28:30;;;;;;;29.85;14.40;;;0.10;99.90;;;;;;5109761;28;20030;-74
2023/01/18 06:30:55;;;;;;;30.27;15.32;;;0.10;99.90;;;;;;5098395;28;20024;-74
2023/01/18 06:33:23;;;;;;;25.00;13.35;;;0.00;99.90;;;;;;5086163;28;20023;-75
2023/01/18 06:35:48;;;;;;;25.60;13.93;;;0.00;99.90;;;;;;5105235;28;20503;-75
2023/01/18 06:38:14;;;;;;;30.25;13.98;;;0.00;99.90;;;;;;5088124;28;20038;-77
2023/01/18 06:40:40;;;;;;;29.48;13.95;;;0.00;99.90;;;;;;5087667;28;20094;-74
2023/01/18 06:43:07;;;;;;;27.67;13.75;;;0.00;99.90;;;;;;5087926;28;20031;-79
2023/01/18 06:45:34;;;;;;;34.20;14.00;;;0.00;99.90;;;;;;5103495;28;20028;-74
2023/01/18 06:48:00;;;;;;;28.70;14.43;;;0.10;99.90;;;;;;5104438;28;20125;-74
2023/01/18 06:50:25;;;;;;;28.17;13.57;;;0.10;99.90;;;;;;5106290;28;20024;-74
2023/01/18 06:52:51;;;;;;;23.88;12.68;;;0.00;99.90;;;;;;5105695;28;20509;-74
2023/01/18 06:55:18;;;;;;;32.20;14.40;;;0.00;99.90;;;;;;5105592;28;20031;-74
2023/01/18 06:57:44;;;;;;;27.65;14.07;;;0.00;99.90;;;;;;5108330;28;20075;-73
2023/01/18 07:00:11;;;;;;;27.77;14.00;;;0.00;99.90;;;;;;5100527;28;20104;-75
2023/01/18 07:02:37;;;;;;;25.13;13.57;;;0.00;99.90;;;;;;5099465;28;20068;-75
2023/01/18 07:05:03;;;;;;;25.92;13.60;;;0.00;99.90;;;;;;5108555;28;20046;-73
2023/01/18 07:07:29;;;;;;;25.17;13.30;;;-0.10;99.90;;;;;;5089267;28;20051;-76
2023/01/18 07:09:55;;;;;;;23.00;12.55;;;0.00;99.90;;;;;;5087836;28;20054;-73
2023/01/18 07:12:21;;;;;;;25.83;13.27;;;0.00;99.90;;;;;;5085079;28;20028;-75
2023/01/18 07:14:47;;;;;;;26.63;13.48;;;0.00;99.90;;;;;;5106040;28;20077;-77
2023/01/18 07:17:13;;;;;;;24.88;13.07;;;0.00;99.90;;;;;;5107056;28;20046;-75
2023/01/18 07:19:39;;;;;;;23.77;12.45;;;0.00;99.90;;;;;;5104139;28;20016;-74
2023/01/18 07:22:05;;;;;;;22.45;12.55;;;0.00;99.90;;;;;;5084123;28;20491;-76
2023/01/18 07:24:31;;;;;;;25.58;13.10;;;0.00;99.90;;;;;;5109045;28;20085;-76
2023/01/18 07:26:59;;;;;;;30.10;13.77;;;0.00;99.90;;;;;;5055077;28;20024;-75
2023/01/18 07:29:26;;;;;;;24.75;13.45;;;0.10;99.90;;;;;;5067917;28;20020;-75
2023/01/18 07:31:52;;;;;;;27.50;13.20;;;0.00;99.90;;;;;;5090532;28;20028;-76
2023/01/18 07:34:17;;;;;;;27.50;13.95;;;0.00;99.90;;;;;;5083236;28;20038;-74
2023/01/18 07:36:43;;;;;;;23.80;12.23;;;0.00;99.90;;;;;;5090200;28;20019;-76
2023/01/18 07:39:10;;;;;;;25.95;13.60;;;0.00;99.90;;;;;;5083234;28;20043;-75
2023/01/18 07:41:36;;;;;;;24.88;12.65;;;0.00;99.90;;;;;;5098183;28;20119;-75
2023/01/18 07:44:03;;;;;;;23.60;12.68;;;0.10;99.90;;;;;;5105456;28;20444;-74
2023/01/18 07:46:29;;;;;;;26.45;13.70;;;0.10;99.90;;;;;;5105513;28;20043;-74
2023/01/18 07:48:54;;;;;;;25.13;12.70;;;0.10;99.90;;;;;;5080393;28;20070;-75
2023/01/18 07:51:21;;;;;;;27.75;14.77;;;0.10;99.90;;;;;;5102977;28;20024;-76
2023/01/18 07:53:47;;;;;;;27.80;15.00;;;0.10;99.90;;;;;;5083342;28;20055;-77
2023/01/18 07:56:16;;;;;;;29.77;14.93;;;0.00;99.90;;;;;;5075593;28;20519;-77
2023/01/18 07:58:42;;;;;;;32.63;14.55;;;0.10;99.90;;;;;;5097363;28;20035;-74
2023/01/18 08:01:12;;;;;;;26.35;12.68;;;0.10;99.90;;;;;;5080290;28;20032;-74
2023/01/18 08:03:38;;;;;;;25.70;13.70;;;0.10;99.90;;;;;;5099808;28;20032;-75
2023/01/18 08:06:06;;;;;;;29.42;13.85;;;0.10;99.90;;;;;;5099943;28;20016;-74
2023/01/18 08:08:33;;;;;;;30.60;15.02;;;0.20;99.90;;;;;;5064522;28;20038;-75
2023/01/18 08:11:01;;;;;;;26.02;14.00;;;0.20;99.90;;;;;;5080494;28;20031;-74
2023/01/18 08:13:27;;;;;;;26.25;14.15;;;0.20;99.90;;;;;;5084191;28;20024;-74
2023/01/18 08:15:54;;;;;;;26.80;13.82;;;0.20;99.90;;;;;;5084754;28;20031;-74
2023/01/18 08:18:20;;;;;;;28.08;14.13;;;0.20;99.90;;;;;;5070110;28;20118;-75
2023/01/18 08:20:47;;;;;;;24.88;12.88;;;0.30;99.90;;;;;;5106787;28;20171;-74
2023/01/18 08:23:15;;;;;;;24.92;14.57;;;0.30;99.90;;;;;;5106820;28;20134;-73
2023/01/18 08:25:46;;;;;;;24.75;13.57;;;0.30;99.90;;;;;;5085886;28;20023;-75
2023/01/18 08:28:13;;;;;;;26.23;14.50;;;0.20;99.90;;;;;;5102891;28;20039;-74
2023/01/18 08:30:42;;;;;;;26.80;14.93;;;0.20;99.90;;;;;;5106487;28;20517;-75
2023/01/18 08:33:08;;;;;;;30.50;14.40;;;0.20;99.90;;;;;;5085911;28;20036;-75
2023/01/18 08:35:40;;;;;;;25.88;14.25;;;0.30;99.90;;;;;;5086105;28;20054;-74
2023/01/18 08:38:06;;;;;;;26.45;14.00;;;0.30;99.90;;;;;;5087519;28;20038;-74
2023/01/18 08:40:31;;;;;;;26.30;13.80;;;0.30;99.90;;;;;;5077423;28;20301;-74
2023/01/18 08:43:00;;;;;;;24.98;13.82;;;0.30;99.90;;;;;;5075104;28;20363;-74
2023/01/18 08:45:26;;;;;;;23.05;12.65;;;0.30;99.90;;;;;;5079067;28;20030;-74
2023/01/18 08:47:56;;;;;;;27.25;14.32;;;0.30;99.90;;;;;;5108721;28;20028;-74
2023/01/18 08:50:22;;;;;;;22.05;11.07;;;0.30;99.90;;;;;;5092278;28;20038;-75
2023/01/18 08:52:48;;;;;;;27.73;13.70;;;0.30;99.90;;;;;;5087342;28;20031;-74
2023/01/18 08:55:13;;;;;;;26.83;13.40;;;0.30;99.90;;;;;;5095392;28;20543;-78
2023/01/18 08:57:39;;;;;;;28.88;14.23;;;0.30;99.90;;;;;;5093890;28;20051;-75
2023/01/18 09:00:05;;;;;;;25.50;13.82;;;0.30;99.90;;;;;;5110664;28;20403;-73
2023/01/18 09:02:31;;;;;;;23.25;13.43;;;0.40;99.90;;;;;;5110309;28;20088;-74
2023/01/18 09:04:57;;;;;;;27.20;12.85;;;0.40;99.90;;;;;;5109139;28;20115;-74
2023/01/18 09:07:23;;;;;;;25.13;13.23;;;0.40;99.90;;;;;;5110779;28;20305;-75
2023/01/18 09:09:48;;;;;;;27.00;13.07;;;0.40;99.90;;;;;;5106207;28;20027;-74
2023/01/18 09:12:14;;;;;;;23.10;13.05;;;0.50;99.90;;;;;;5110340;28;20030;-74
2023/01/18 09:14:40;;;;;;;25.25;13.50;;;0.40;99.90;;;;;;5109517;28;20027;-75
2023/01/18 09:17:05;;;;;;;24.63;13.95;;;0.40;99.90;;;;;;5106874;28;20501;-78
2023/01/18 09:19:31;;;;;;;32.03;14.82;;;0.40;99.90;;;;;;5111000;28;20173;-75
2023/01/18 09:21:57;;;;;;;26.35;14.00;;;0.40;99.90;;;;;;5108001;28;20057;-75
2023/01/18 09:24:23;;;;;;;23.13;13.02;;;0.40;99.90;;;;;;5109327;28;20094;-74
2023/01/18 09:26:50;;;;;;;25.63;14.10;;;0.40;99.90;;;;;;5108050;28;20027;-74
2023/01/18 09:29:17;;;;;;;25.45;12.50;;;0.50;99.90;;;;;;5111096;28;20048;-74
2023/01/18 09:31:42;;;;;;;27.27;13.70;;;0.50;99.90;;;;;;5108114;28;20043;-74
2023/01/18 09:34:10;;;;;;;23.20;12.80;;;0.50;99.90;;;;;;5109806;28;20205;-74
2023/01/18 09:36:36;;;;;;;24.38;12.93;;;0.60;99.90;;;;;;5109701;28;20525;-75
2023/01/18 09:39:04;;;;;;;26.30;14.35;;;0.60;99.90;;;;;;5091121;28;20031;-73
2023/01/18 09:41:32;;;;;;;25.23;14.20;;;0.60;99.90;;;;;;5108374;28;20395;-73
2023/01/18 09:44:16;;;;;;;24.15;12.77;;;0.70;99.90;;;;;;5108525;28;20057;-75
2023/01/18 09:46:43;;;;;;;29.08;13.27;;;0.70;99.90;;;;;;5109376;28;20434;-75
2023/01/18 09:49:22;;;;;;;27.55;13.35;;;0.80;99.90;;;;;;5107370;28;20073;-75
2023/01/18 09:52:03;;;;;;;25.00;13.45;;;0.80;99.90;;;;;;5085852;28;20116;-73
2023/01/18 09:54:44;;;;;;;22.67;12.38;;;0.80;99.90;;;;;;5088093;28;20034;-73
2023/01/18 09:57:31;;;;;;;28.88;13.98;;;0.80;99.90;;;;;;5108123;28;20119;-73
2023/01/18 09:59:59;;;;;;;24.70;12.73;;;0.90;99.90;;;;;;5107508;28;20044;-74
2023/01/18 10:02:50;;;;;;;25.77;14.13;;;0.90;99.90;;;;;;5071602;28;20027;-74
2023/01/18 10:05:36;;;;;;;27.25;14.82;;;0.90;99.90;;;;;;4992225;28;20132;-76
2023/01/18 10:08:12;;;;;;;25.52;13.30;;;1.00;99.90;;;;;;5000803;28;20065;-75
2023/01/18 10:11:01;;;;;;;26.88;13.13;;;1.00;99.90;;;;;;4967905;28;20040;-75
2023/01/18 10:13:53;;;;;;;24.08;12.98;;;1.10;99.90;;;;;;4989527;28;20077;-79
2023/01/18 10:16:19;;;;;;;21.52;11.38;;;1.10;99.90;;;;;;4973714;28;20042;-75
2023/01/18 10:18:50;;;;;;;22.13;12.07;;;1.20;99.90;;;;;;5006867;28;20044;-73
2023/01/18 10:21:46;;;;;;;22.10;12.10;;;1.20;99.90;;;;;;4989647;28;20057;-77
2023/01/18 10:24:23;;;;;;;20.77;11.32;;;1.20;99.90;;;;;;4986811;28;20037;-73
2023/01/18 10:26:56;;;;;;;23.50;11.55;;;1.30;99.90;;;;;;5020151;28;20037;-73
2023/01/18 10:29:42;;;;;;;20.35;10.55;;;1.30;99.90;;;;;;5008604;28;20509;-76
2023/01/18 10:32:13;;;;;;;17.17;10.25;;;1.30;99.90;;;;;;5026535;28;20045;-74
2023/01/18 10:34:46;;;;;;;22.08;12.07;;;1.40;99.90;;;;;;5009740;28;20517;-78
2023/01/18 10:37:15;;;;;;;22.25;12.13;;;1.40;99.90;;;;;;5007193;28;20045;-77
2023/01/18 10:39:53;;;;;;;19.95;10.55;;;1.50;99.90;;;;;;5010343;28;20041;-76
2023/01/18 10:42:52;;;;;;;20.00;10.57;;;1.50;99.90;;;;;;5047505;28;20076;-79
2023/01/18 10:45:21;;;;;;;21.92;11.32;;;1.50;99.90;;;;;;5087521;28;20085;-73
2023/01/18 10:47:48;;;;;;;22.25;12.05;;;1.50;99.90;;;;;;5090477;28;20114;-73
2023/01/18 10:50:18;;;;;;;18.83;10.57;;;1.50;99.90;;;;;;5108496;28;20055;-72
2023/01/18 10:52:45;;;;;;;20.60;10.60;;;1.50;99.90;;;;;;5089978;28;20035;-74
2023/01/18 10:55:16;;;;;;;23.35;11.13;;;1.50;99.90;;;;;;5087804;28;20092;-75
2023/01/18 10:57:53;;;;;;;20.27;10.98;;;1.60;99.90;;;;;;5108432;28;20035;-76
2023/01/18 11:00:29;;;;;;;26.45;11.50;;;1.60;99.90;;;;;;5115901;28;20027;-75
2023/01/18 11:02:56;;;;;;;18.50;10.60;;;1.60;99.90;;;;;;5082498;28;20034;-77
2023/01/18 11:05:38;;;;;;;22.73;11.70;;;1.60;99.90;;;;;;5090001;28;20049;-74
2023/01/18 11:08:13;;;;;;;18.95;10.82;;;1.60;99.90;;;;;;5071874;28;20112;-74
2023/01/18 11:10:42;;;;;;;20.17;10.77;;;1.70;99.90;;;;;;5102671;28;20080;-74
2023/01/18 11:13:30;;;;;;;19.65;11.63;;;1.60;99.90;;;;;;5108424;28;20039;-75
2023/01/18 11:16:22;;;;;;;23.65;11.75;;;1.60;99.90;;;;;;5072997;28;20024;-74
2023/01/18 11:19:02;;;;;;;21.10;12.60;;;1.60;99.90;;;;;;5086415;28;20126;-74
2023/01/18 11:21:51;;;;;;;20.52;10.98;;;1.70;99.90;;;;;;5107813;28;20387;-73
2023/01/18 11:24:27;;;;;;;21.05;11.15;;;1.70;99.90;;;;;;5105413;28;20506;-75
2023/01/18 11:27:03;;;;;;;20.77;11.30;;;1.60;99.90;;;;;;5086736;28;20043;-75
2023/01/18 11:29:44;;;;;;;19.83;11.25;;;1.70;99.90;;;;;;5106561;28;20024;-73
2023/01/18 11:32:27;;;;;;;17.77;10.33;;;1.70;99.90;;;;;;5090587;28;20664;-77
2023/01/18 11:34:59;;;;;;;19.50;11.00;;;1.70;99.90;;;;;;5098229;28;20039;-74
2023/01/18 11:37:35;;;;;;;20.20;11.98;;;1.70;99.90;;;;;;5093216;28;20031;-77
2023/01/18 11:40:25;;;;;;;20.60;11.70;;;1.70;99.90;;;;;;5125036;28;20459;-81
2023/01/18 11:43:02;;;;;;;21.40;11.17;;;1.70;99.90;;;;;;5107988;28;20043;-75
2023/01/18 11:45:30;;;;;;;21.33;11.50;;;1.60;99.90;;;;;;5109719;28;20514;-75
2023/01/18 11:48:03;;;;;;;22.60;11.90;;;1.60;99.90;;;;;;5087640;28;20597;-77
2023/01/18 11:50:51;;;;;;;22.73;12.32;;;1.70;99.90;;;;;;5086571;28;20028;-73
2023/01/18 11:53:50;;;;;;;19.13;11.40;;;1.70;99.90;;;;;;5109965;28;20062;-73
2023/01/18 11:56:47;;;;;;;21.45;11.85;;;1.70;99.90;;;;;;5079206;28;20031;-77
2023/01/18 11:59:28;;;;;;;21.42;11.50;;;1.70;99.90;;;;;;5084412;28;20032;-74
2023/01/18 12:02:15;;;;;;;19.90;11.98;;;1.70;99.90;;;;;;5087746;28;20028;-78
2023/01/18 12:05:09;;;;;;;20.90;12.18;;;1.70;99.90;;;;;;5089253;28;20028;-76
2023/01/18 12:07:59;;;;;;;28.02;12.45;;;1.70;99.90;;;;;;5057711;28;20040;-76
2023/01/18 12:10:35;;;;;;;20.38;10.60;;;1.70;99.90;;;;;;5085840;28;20036;-74
2023/01/18 12:13:25;;;;;;;21.42;11.73;;;1.70;99.90;;;;;;5088850;28;20020;-71
2023/01/18 12:16:16;;;;;;;26.63;11.57;;;1.70;99.90;;;;;;5112532;28;20089;-75
2023/01/18 12:18:55;;;;;;;20.75;12.15;;;1.70;99.90;;;;;;5109609;28;20031;-73
2023/01/18 12:22:04;;;;;;;23.88;10.73;;;1.70;99.90;;;;;;5076188;28;20035;-80
2023/01/18 12:24:37;;;;;;;22.80;12.52;;;1.70;99.90;;;;;;5089532;28;20440;-74
2023/01/18 12:27:11;;;;;;;22.05;11.82;;;1.70;99.90;;;;;;5110942;28;20362;-83
2023/01/18 12:29:52;;;;;;;21.58;11.07;;;1.80;99.90;;;;;;5090769;28;20024;-79
2023/01/18 12:32:29;;;;;;;23.83;10.80;;;1.80;99.90;;;;;;5094000;28;20105;-74
2023/01/18 12:35:14;;;;;;;21.60;11.68;;;1.80;99.90;;;;;;5108847;28;20019;-73
2023/01/18 12:37:43;;;;;;;25.58;12.43;;;1.80;99.90;;;;;;5090748;28;20023;-77
2023/01/18 12:40:20;;;;;;;20.83;11.02;;;1.80;99.90;;;;;;5092939;28;20030;-77
2023/01/18 12:42:54;;;;;;;20.55;11.88;;;1.80;99.90;;;;;;5111198;28;20111;-73
2023/01/18 12:45:41;;;;;;;21.15;10.80;;;1.90;99.90;;;;;;5112942;28;20064;-77
2023/01/18 12:48:35;;;;;;;21.08;10.75;;;1.80;99.90;;;;;;5091245;28;20081;-77
2023/01/18 12:51:12;;;;;;;21.00;10.10;;;1.80;99.90;;;;;;5111240;28;20038;-73
2023/01/18 12:53:47;;;;;;;19.05;10.18;;;1.80;99.90;;;;;;5092809;28;20035;-77
2023/01/18 12:56:23;;;;;;;17.38;9.60;;;1.80;99.90;;;;;;5080585;28;20031;-74
2023/01/18 12:58:54;;;;;;;16.77;9.90;;;1.80;99.90;;;;;;5097016;28;20035;-74
2023/01/18 13:01:27;;;;;;;21.00;10.77;;;1.80;99.90;;;;;;5091279;28;20470;-73
2023/01/18 13:03:59;;;;;;;18.92;10.50;;;1.80;99.90;;;;;;5088292;28;20035;-73
2023/01/18 13:06:26;;;;;;;18.38;10.40;;;1.80;99.90;;;;;;5073697;28;20114;-74
2023/01/18 13:08:55;;;;;;;19.33;10.25;;;1.90;99.90;;;;;;5110482;28;20448;-76
2023/01/18 13:11:24;;;;;;;20.63;11.18;;;1.90;99.90;;;;;;5072737;28;20016;-74
2023/01/18 13:13:58;;;;;;;21.88;12.18;;;1.90;99.90;;;;;;5110193;28;20027;-74
2023/01/18 13:16:34;;;;;;;19.33;11.05;;;1.90;99.90;;;;;;5110616;28;20031;-75
2023/01/18 13:19:07;;;;;;;22.00;10.93;;;1.90;99.90;;;;;;5109990;28;20027;-77
2023/01/18 13:21:55;;;;;;;17.80;10.68;;;1.90;99.90;;;;;;5088097;28;20028;-74
2023/01/18 13:24:29;;;;;;;19.88;10.57;;;1.90;99.90;;;;;;5108700;28;20042;-74
2023/01/18 13:27:10;;;;;;;21.58;10.13;;;1.90;99.90;;;;;;5092812;28;20458;-73
2023/01/18 13:29:36;;;;;;;21.83;11.00;;;1.90;99.90;;;;;;5073194;28;20150;-75
2023/01/18 13:32:19;;;;;;;21.63;10.50;;;2.20;99.90;;;;;;5090372;28;20030;-73
2023/01/18 13:34:47;;;;;;;16.92;9.75;;;2.10;99.90;;;;;;5074556;28;20032;-73